Amaranth, Pennsylvania
Current Conditions -  °F | °C
As of 12:53 AM on Thursday 18 Dec 2014 (Local Time) from KHGR Reporting Station
Overcast Overcast  
Wind Chill: 24°   Ceiling: 4400
Heat Index: 35°   Visibility: 10mi
Dew Point: 20°   Wind: 22mph
Humidity: 54%   Direction: 300°WNW
Pressure: 30.05"   Gusts: 28mph
Location:  39.7745°N, 78.2026°W
Report Text: KHGR 180553Z AUTO 30019G24KT 10SM OVC044 02/M07 A3005 RMK AO2 PK WND 29029/0514 SLP190 T00171067 10033 20017 50001 TSNO
Loading
Personal Weather Stations






























Interactive Weather Map New forecast layout! Learn more

10-Day Weather Forecast

Advertisements
Track Severe Weather on mobile